Time;durP1;ratioP1;P1;durP2;ratioP2;P2;SDS_P1;SDS_P2;PMS_P1;PMS_P2;Temp;Humidity;BMP_temperature;BMP_pressure;BME280_temperature;BME280_humidity;BME280_pressure;Samples;Min_cycle;Max_cycle;Signal;HPM_P1;HPM_P2
2021/03/19 00:02:03;;;;;;;26.58;15.38;;;;;;;2.58;86.04;100606.69;5023485;28;20047;-70
2021/03/19 00:04:28;;;;;;;35.38;17.60;;;;;;;2.46;87.75;100598.69;5028598;28;20037;-70
2021/03/19 00:06:54;;;;;;;36.00;19.48;;;;;;;2.58;85.63;100601.47;5031178;28;20037;-70
2021/03/19 00:09:19;;;;;;;27.77;16.45;;;;;;;2.50;86.80;100602.78;5025811;28;20458;-70
2021/03/19 00:11:44;;;;;;;31.02;17.02;;;;;;;2.54;85.93;100596.41;5030349;28;20090;-70
2021/03/19 00:14:10;;;;;;;32.40;18.63;;;;;;;2.51;86.06;100598.41;5030400;28;20644;-70
2021/03/19 00:16:38;;;;;;;32.00;18.27;;;;;;;2.51;85.97;100594.00;5030561;28;20033;-71
2021/03/19 00:19:04;;;;;;;29.00;16.70;;;;;;;2.47;86.34;100592.53;5030477;28;20029;-70
2021/03/19 00:21:30;;;;;;;37.08;19.20;;;;;;;2.48;86.01;100590.75;5030159;28;20553;-71
2021/03/19 00:23:56;;;;;;;34.88;18.27;;;;;;;2.48;85.91;100590.75;5029445;28;20124;-71
2021/03/19 00:26:21;;;;;;;31.65;17.67;;;;;;;2.45;86.23;100589.16;5027607;28;20549;-71
2021/03/19 00:28:47;;;;;;;25.80;15.45;;;;;;;2.39;87.00;100583.53;5030587;28;20039;-70
2021/03/19 00:31:12;;;;;;;22.25;13.52;;;;;;;2.27;89.58;100575.53;5029917;28;20043;-71
2021/03/19 00:33:38;;;;;;;29.25;14.93;;;;;;;2.36;87.33;100583.69;5023824;28;20072;-70
2021/03/19 00:36:03;;;;;;;23.55;13.70;;;;;;;2.30;88.96;100579.72;5028955;28;20125;-71
2021/03/19 00:38:28;;;;;;;26.92;16.25;;;;;;;2.33;88.19;100577.75;5030285;28;20029;-70
2021/03/19 00:40:54;;;;;;;26.83;15.80;;;;;;;2.38;86.86;100584.44;5030257;28;20040;-71
2021/03/19 00:43:19;;;;;;;26.33;14.30;;;;;;;2.37;86.68;100580.19;5030305;28;20152;-71
2021/03/19 00:45:45;;;;;;;33.85;19.00;;;;;;;2.43;86.16;100580.63;5029695;28;20079;-72
2021/03/19 00:48:11;;;;;;;29.67;17.02;;;;;;;2.34;86.08;100576.00;5029819;28;20045;-71
2021/03/19 00:50:39;;;;;;;27.70;16.30;;;;;;;2.26;86.43;100578.22;5028311;28;20555;-71
2021/03/19 00:53:05;;;;;;;24.23;13.85;;;;;;;2.12;87.97;100576.47;5029415;28;20125;-71
2021/03/19 00:55:31;;;;;;;26.48;15.10;;;;;;;2.19;86.88;100580.38;5027432;28;20120;-71
2021/03/19 00:57:56;;;;;;;29.70;16.73;;;;;;;2.23;86.45;100584.47;5029279;28;20037;-70
2021/03/19 01:00:24;;;;;;;21.45;13.05;;;;;;;2.20;86.74;100584.69;5029098;28;20044;-71
2021/03/19 01:02:50;;;;;;;26.95;15.20;;;;;;;2.21;86.66;100585.50;5029103;28;20045;-71
2021/03/19 01:05:17;;;;;;;22.27;13.27;;;;;;;2.18;87.03;100590.94;5028668;28;20040;-70
2021/03/19 01:07:43;;;;;;;25.92;14.02;;;;;;;2.14;87.32;100585.06;5026691;28;20036;-71
2021/03/19 01:10:11;;;;;;;25.60;15.50;;;;;;;2.14;87.02;100590.28;5029290;28;20058;-70
2021/03/19 01:12:37;;;;;;;21.05;12.07;;;;;;;2.10;87.54;100588.81;5029782;28;20083;-71
2021/03/19 01:15:05;;;;;;;27.33;16.00;;;;;;;2.12;87.42;100593.00;5025531;28;20134;-71
2021/03/19 01:17:31;;;;;;;26.15;15.98;;;;;;;2.13;86.88;100588.63;5026335;28;20053;-71
2021/03/19 01:19:56;;;;;;;24.67;14.27;;;;;;;2.12;86.58;100586.91;5028389;28;20033;-71
2021/03/19 01:22:21;;;;;;;20.67;12.02;;;;;;;2.04;87.50;100590.00;5028848;28;20079;-71
2021/03/19 01:24:47;;;;;;;23.05;13.30;;;;;;;2.08;86.86;100588.06;5029806;28;20120;-71
2021/03/19 01:27:12;;;;;;;23.80;14.20;;;;;;;2.11;86.25;100580.88;5029695;28;20033;-71
2021/03/19 01:29:37;;;;;;;27.85;16.05;;;;;;;2.12;86.68;100573.88;5030460;28;20029;-72
2021/03/19 01:32:03;;;;;;;23.58;13.35;;;;;;;2.07;86.85;100570.72;5024159;28;20033;-71
2021/03/19 01:34:29;;;;;;;21.35;12.73;;;;;;;1.95;87.66;100568.88;5027819;28;20113;-71
2021/03/19 01:36:54;;;;;;;19.13;10.82;;;;;;;1.92;88.26;100564.69;5019117;28;20025;-70
2021/03/19 01:39:19;;;;;;;24.75;13.48;;;;;;;1.96;87.19;100570.59;5020985;28;20026;-71
2021/03/19 01:41:45;;;;;;;23.10;13.27;;;;;;;1.96;87.87;100562.75;5021820;28;20036;-71
2021/03/19 01:44:55;;;;;;;22.67;13.25;;;;;;;2.00;87.25;100566.81;5025750;28;20033;-71
2021/03/19 01:47:58;;;;;;;20.75;12.13;;;;;;;1.88;88.61;100571.91;5019223;28;20030;-71
2021/03/19 01:51:01;;;;;;;23.92;13.50;;;;;;;1.96;87.32;100565.38;5023374;28;20046;-71
2021/03/19 01:54:04;;;;;;;21.17;12.60;;;;;;;1.94;87.56;100564.63;5042302;28;20120;-71
2021/03/19 01:57:06;;;;;;;23.08;12.23;;;;;;;1.92;87.27;100565.53;5027348;28;20113;-71
2021/03/19 02:00:09;;;;;;;26.85;14.50;;;;;;;1.96;86.81;100555.75;5026536;28;20444;-71
2021/03/19 02:03:12;;;;;;;19.73;11.55;;;;;;;1.91;87.04;100561.25;5028475;28;20041;-70
2021/03/19 02:06:15;;;;;;;15.93;10.02;;;;;;;1.88;87.48;100558.00;5023844;28;20037;-71
2021/03/19 02:09:18;;;;;;;16.30;10.45;;;;;;;1.90;87.62;100562.19;5029012;28;20061;-71
2021/03/19 02:12:21;;;;;;;15.68;9.80;;;;;;;1.88;87.66;100566.69;5029774;28;20026;-71
2021/03/19 02:15:24;;;;;;;12.57;7.75;;;;;;;1.87;88.84;100567.59;5005027;28;20128;-71
2021/03/19 02:18:27;;;;;;;15.10;7.97;;;;;;;1.95;87.56;100568.88;5009025;28;20038;-71
2021/03/19 02:21:30;;;;;;;13.07;8.55;;;;;;;1.96;88.21;100567.97;5009450;28;20034;-71
2021/03/19 02:24:33;;;;;;;14.30;8.40;;;;;;;1.98;88.10;100566.09;5002740;28;20109;-71
2021/03/19 02:27:36;;;;;;;10.88;6.57;;;;;;;1.99;87.64;100562.56;5001361;28;20030;-71
2021/03/19 02:30:39;;;;;;;15.40;9.10;;;;;;;1.97;87.61;100561.81;4999853;28;20053;-70
2021/03/19 02:33:04;;;;;;;14.55;9.43;;;;;;;1.89;90.14;100564.91;5002507;28;20502;-71
2021/03/19 02:35:30;;;;;;;10.25;6.75;;;;;;;1.95;89.89;100581.94;5007549;28;20040;-71
2021/03/19 02:37:55;;;;;;;11.75;7.18;;;;;;;1.95;90.03;100574.09;5004304;28;20162;-71
2021/03/19 02:40:23;;;;;;;14.80;8.95;;;;;;;1.97;88.92;100567.84;5008267;28;20049;-71
2021/03/19 02:42:49;;;;;;;14.93;8.15;;;;;;;1.93;89.55;100571.56;5009175;28;20049;-71
2021/03/19 02:45:22;;;;;;;14.93;9.50;;;;;;;2.04;87.88;100569.16;5006513;28;20030;-71
2021/03/19 02:47:47;;;;;;;13.43;8.43;;;;;;;2.06;87.42;100562.06;5008746;28;20104;-70
2021/03/19 02:50:13;;;;;;;12.10;7.90;;;;;;;2.04;88.08;100569.16;5007202;28;20140;-71
2021/03/19 02:52:41;;;;;;;13.15;8.23;;;;;;;2.07;87.42;100566.38;5014802;28;20045;-71
2021/03/19 02:55:10;;;;;;;15.02;8.80;;;;;;;2.11;86.90;100567.00;5004702;28;20040;-71
2021/03/19 02:57:35;;;;;;;12.45;6.60;;;;;;;2.04;87.34;100561.31;5006279;28;20053;-71
2021/03/19 03:00:01;;;;;;;10.05;6.85;;;;;;;2.01;89.01;100568.53;5008665;28;20033;-72
2021/03/19 03:02:26;;;;;;;9.55;5.78;;;;;;;2.03;87.77;100566.66;5002911;28;20149;-71
2021/03/19 03:04:52;;;;;;;12.07;8.20;;;;;;;1.98;90.25;100564.34;5008613;28;20503;-71
2021/03/19 03:07:24;;;;;;;11.38;7.38;;;;;;;1.97;90.07;100556.59;5007741;28;20121;-71
2021/03/19 03:09:50;;;;;;;10.93;6.85;;;;;;;2.01;89.52;100561.53;5003655;28;20073;-71
2021/03/19 03:12:16;;;;;;;9.70;6.38;;;;;;;2.06;88.41;100564.69;5008579;28;20135;-71
2021/03/19 03:14:42;;;;;;;15.90;9.73;;;;;;;2.14;87.47;100572.00;5009180;28;20470;-71
2021/03/19 03:17:08;;;;;;;16.27;9.63;;;;;;;2.14;87.02;100566.78;5008631;28;20109;-71
2021/03/19 03:19:33;;;;;;;12.93;8.50;;;;;;;2.14;86.88;100569.41;5009480;28;20030;-71
2021/03/19 03:21:59;;;;;;;10.02;6.53;;;;;;;2.07;88.18;100571.59;5008392;28;20045;-71
2021/03/19 03:24:26;;;;;;;13.65;8.70;;;;;;;2.13;87.14;100570.34;5008603;28;20044;-71
2021/03/19 03:26:52;;;;;;;15.02;10.07;;;;;;;2.17;86.88;100568.38;5006815;28;20038;-71
2021/03/19 03:29:19;;;;;;;12.10;7.20;;;;;;;2.08;87.37;100561.97;5004221;28;20521;-70
2021/03/19 03:31:44;;;;;;;14.88;9.23;;;;;;;2.10;86.64;100570.56;5002741;28;20041;-71
2021/03/19 03:34:10;;;;;;;20.30;11.32;;;;;;;2.12;86.78;100573.88;5008037;28;20038;-71
2021/03/19 03:36:36;;;;;;;10.18;6.40;;;;;;;2.02;88.40;100564.97;5004251;28;20398;-71
2021/03/19 03:39:06;;;;;;;11.38;7.00;;;;;;;1.95;89.53;100563.66;5003844;28;20048;-71
2021/03/19 03:41:31;;;;;;;15.75;9.13;;;;;;;1.98;87.97;100574.75;5005856;28;20084;-72
2021/03/19 03:43:57;;;;;;;9.63;6.35;;;;;;;1.96;87.94;100563.59;5008554;28;20034;-71
2021/03/19 03:46:26;;;;;;;14.85;8.15;;;;;;;1.97;88.22;100565.25;5008461;28;20068;-72
2021/03/19 03:48:54;;;;;;;8.25;4.80;;;;;;;2.01;87.74;100568.53;5001293;28;20038;-71
2021/03/19 03:51:20;;;;;;;8.35;5.75;;;;;;;1.99;89.32;100562.56;5018742;28;20095;-71
2021/03/19 03:53:45;;;;;;;8.45;5.30;;;;;;;2.01;88.12;100558.91;5025573;28;20514;-72
2021/03/19 03:56:13;;;;;;;12.50;7.78;;;;;;;2.03;87.30;100558.84;5011062;28;20029;-72
2021/03/19 03:58:38;;;;;;;15.95;9.05;;;;;;;2.06;87.38;100566.47;5015200;28;20042;-71
2021/03/19 04:01:05;;;;;;;10.45;6.55;;;;;;;2.04;87.95;100563.09;5019384;28;20038;-71
2021/03/19 04:03:31;;;;;;;10.30;6.10;;;;;;;2.04;89.15;100566.53;5002513;28;20061;-71
2021/03/19 04:05:56;;;;;;;8.98;6.22;;;;;;;2.02;89.85;100567.56;5012061;28;20080;-71
2021/03/19 04:08:24;;;;;;;11.18;7.43;;;;;;;1.96;90.66;100566.19;5000788;28;20040;-71
2021/03/19 04:10:52;;;;;;;13.55;9.07;;;;;;;1.85;91.15;100573.84;5012418;28;20499;-71
2021/03/19 04:13:18;;;;;;;11.43;7.97;;;;;;;1.87;90.83;100572.81;5011276;28;20041;-71
2021/03/19 04:15:44;;;;;;;10.18;6.13;;;;;;;1.94;89.13;100568.06;5021566;28;20688;-71
2021/03/19 04:18:14;;;;;;;12.00;7.65;;;;;;;1.90;90.31;100567.41;5028933;28;20295;-71
2021/03/19 04:20:41;;;;;;;7.85;5.10;;;;;;;1.91;90.32;100569.09;5011523;28;20037;-71
2021/03/19 04:23:07;;;;;;;7.72;4.68;;;;;;;1.98;89.50;100571.28;5012037;28;20498;-71
2021/03/19 04:25:33;;;;;;;5.95;4.25;;;;;;;2.01;88.85;100579.78;5011086;28;20034;-72
2021/03/19 04:28:08;;;;;;;7.05;4.32;;;;;;;2.02;88.48;100571.00;5024741;28;20379;-71
2021/03/19 04:30:37;;;;;;;7.53;5.20;;;;;;;2.03;89.97;100561.44;5031092;28;20052;-71
2021/03/19 04:33:03;;;;;;;9.48;6.63;;;;;;;1.99;91.09;100573.00;5025936;28;20030;-71
2021/03/19 04:35:31;;;;;;;10.77;6.95;;;;;;;1.91;91.09;100576.91;5010589;28;20030;-71
2021/03/19 04:37:59;;;;;;;12.90;8.25;;;;;;;1.86;91.40;100591.16;5008921;28;20034;-71
2021/03/19 04:40:26;;;;;;;10.05;6.90;;;;;;;1.90;90.07;100590.88;5009859;28;20140;-71
2021/03/19 04:42:53;;;;;;;10.70;6.40;;;;;;;1.91;90.20;100594.34;5010953;28;20590;-71
2021/03/19 04:45:19;;;;;;;9.88;6.60;;;;;;;1.95;90.09;100598.41;5009625;28;20084;-71
2021/03/19 04:47:44;;;;;;;12.10;7.90;;;;;;;1.96;89.96;100594.06;5005454;28;20065;-71
2021/03/19 04:50:11;;;;;;;18.10;10.75;;;;;;;1.91;89.86;100602.97;5008617;28;20034;-71
2021/03/19 04:52:37;;;;;;;16.35;10.55;;;;;;;1.92;90.19;100602.03;5011307;28;20129;-71
2021/03/19 04:55:04;;;;;;;20.20;11.48;;;;;;;1.85;90.77;100602.53;5003870;28;20121;-71
2021/03/19 04:57:30;;;;;;;19.00;11.10;;;;;;;1.92;89.02;100599.44;5033586;28;20417;-71
2021/03/19 04:59:56;;;;;;;16.48;9.63;;;;;;;1.90;89.61;100601.28;5028451;28;20037;-71
2021/03/19 05:02:39;;;;;;;17.30;10.60;;;;;;;1.92;89.95;100603.81;5010910;28;20045;-71
2021/03/19 05:05:09;;;;;;;11.77;8.15;;;;;;;1.90;90.40;100609.13;5019985;28;20032;-71
2021/03/19 05:07:34;;;;;;;20.38;12.25;;;;;;;1.94;89.54;100617.59;5029041;28;20068;-71
2021/03/19 05:09:59;;;;;;;34.20;18.33;;;;;;;2.00;88.61;100619.00;5028320;28;20037;-71
2021/03/19 05:12:25;;;;;;;29.30;14.98;;;;;;;1.92;89.70;100622.91;5025498;28;20120;-70
2021/03/19 05:14:50;;;;;;;24.92;14.52;;;;;;;1.89;89.75;100627.47;5017309;28;20056;-71
2021/03/19 05:17:16;;;;;;;32.22;16.60;;;;;;;1.91;88.97;100636.88;5031228;28;20049;-71
2021/03/19 05:19:41;;;;;;;36.85;17.67;;;;;;;1.97;88.77;100634.84;5030415;28;20033;-70
2021/03/19 05:22:07;;;;;;;25.23;14.70;;;;;;;1.85;91.10;100642.47;5019857;28;20490;-71
2021/03/19 05:24:33;;;;;;;26.80;15.77;;;;;;;1.91;89.44;100642.09;5029955;28;20037;-71
2021/03/19 05:26:59;;;;;;;34.35;17.40;;;;;;;1.88;89.91;100644.91;5030018;28;20037;-71
2021/03/19 05:29:24;;;;;;;29.30;16.45;;;;;;;1.90;89.29;100656.06;5030641;28;20045;-71
2021/03/19 05:31:49;;;;;;;43.25;21.55;;;;;;;1.92;89.27;100650.75;5024900;28;20116;-71
2021/03/19 05:34:15;;;;;;;31.23;16.70;;;;;;;1.87;90.03;100644.97;5023821;28;20056;-71
2021/03/19 05:36:40;;;;;;;27.08;15.55;;;;;;;1.88;89.77;100651.88;5029775;28;20219;-70
2021/03/19 05:39:08;;;;;;;35.38;19.00;;;;;;;1.94;89.24;100655.88;5030287;28;20030;-71
2021/03/19 05:41:36;;;;;;;26.92;14.98;;;;;;;1.91;89.44;100652.53;5030733;28;20418;-71
2021/03/19 05:44:13;;;;;;;24.85;13.95;;;;;;;1.84;92.07;100651.22;5029256;28;20034;-70
2021/03/19 05:46:42;;;;;;;42.13;21.13;;;;;;;1.94;90.16;100655.88;5030402;28;20040;-71
2021/03/19 05:49:07;;;;;;;23.73;13.52;;;;;;;1.92;90.05;100654.19;5022544;28;20033;-71
2021/03/19 05:51:58;;;;;;;37.20;19.17;;;;;;;1.96;90.37;100654.03;5025226;28;20081;-71
2021/03/19 05:54:30;;;;;;;26.05;15.07;;;;;;;1.96;90.87;100656.63;5029134;28;20867;-71
2021/03/19 05:57:22;;;;;;;27.70;15.90;;;;;;;1.97;91.65;100663.53;5027280;28;20101;-71
2021/03/19 05:59:50;;;;;;;25.30;14.93;;;;;;;1.98;91.80;100663.44;5026338;28;20030;-71
2021/03/19 06:02:27;;;;;;;28.65;17.20;;;;;;;2.00;91.65;100665.94;5030016;28;20088;-71
2021/03/19 06:05:07;;;;;;;34.08;17.83;;;;;;;1.96;92.44;100667.06;5022702;28;20029;-72
2021/03/19 06:07:54;;;;;;;45.30;20.60;;;;;;;2.03;91.47;100663.16;5025798;28;20037;-71
2021/03/19 06:10:25;;;;;;;32.58;18.20;;;;;;;2.07;91.77;100662.00;5030274;28;20037;-71
2021/03/19 06:12:52;;;;;;;;;;;;;;;2.20;89.73;100665.56;5027847;28;20061;-70
2021/03/19 06:15:27;;;;;;;47.47;24.90;;;;;;;2.15;89.84;100667.63;5029295;28;20011;-71
2021/03/19 06:17:54;;;;;;;40.10;21.48;;;;;;;2.13;89.37;100672.91;5029921;28;20108;-71
2021/03/19 06:20:22;;;;;;;36.13;20.23;;;;;;;2.16;88.15;100671.88;5029342;28;20383;-71
2021/03/19 06:22:57;;;;;;;37.97;21.05;;;;;;;2.19;87.89;100683.91;5045327;28;20399;-70
2021/03/19 06:25:23;;;;;;;30.98;18.20;;;;;;;2.19;87.53;100681.28;5029837;28;20033;-71
2021/03/19 06:27:51;;;;;;;33.78;19.33;;;;;;;2.22;87.82;100689.78;5024314;28;20045;-70
2021/03/19 06:30:24;;;;;;;35.55;19.63;;;;;;;2.17;89.30;100686.63;5025411;28;20038;-71
2021/03/19 06:32:59;;;;;;;35.13;20.25;;;;;;;2.28;88.30;100685.94;5024211;28;20130;-70
2021/03/19 06:35:31;;;;;;;40.20;22.65;;;;;;;2.33;88.64;100687.34;5040072;28;20061;-71
2021/03/19 06:38:36;;;;;;;34.08;17.98;;;;;;;2.39;88.70;100687.91;5021457;28;20087;-71
2021/03/19 06:41:14;;;;;;;36.08;20.13;;;;;;;2.47;88.74;100696.09;5020741;28;20052;-71
2021/03/19 06:43:39;;;;;;;38.40;21.33;;;;;;;2.50;88.48;100685.44;5024156;28;20038;-71
2021/03/19 06:46:10;;;;;;;37.58;21.33;;;;;;;2.57;88.49;100681.53;5029475;28;20026;-71
2021/03/19 06:48:41;;;;;;;;;;;;;;;2.62;87.79;100687.31;5026473;28;20045;-70
2021/03/19 06:51:24;;;;;;;33.13;18.17;;;;;;;2.65;88.01;100683.66;5029930;28;19920;-70
2021/03/19 06:54:01;;;;;;;25.73;15.45;;;;;;;2.71;88.50;100683.25;5028930;28;20117;-71
2021/03/19 06:56:28;;;;;;;33.40;18.23;;;;;;;2.72;87.56;100683.19;5028556;28;20104;-70
2021/03/19 06:58:53;;;;;;;35.25;19.65;;;;;;;2.74;87.02;100678.69;5027811;28;20379;-71
2021/03/19 07:01:33;;;;;;;32.83;19.08;;;;;;;2.80;86.59;100684.47;5026973;28;20033;-71
2021/03/19 07:04:23;;;;;;;28.35;16.70;;;;;;;2.78;87.12;100683.72;5028960;28;20033;-70
2021/03/19 07:07:02;;;;;;;37.50;21.65;;;;;;;2.97;86.01;100687.66;5019507;28;20058;-71
2021/03/19 07:10:10;;;;;;;30.13;17.20;;;;;;;2.92;86.51;100691.50;5028560;28;20026;-71
2021/03/19 07:13:03;;;;;;;35.78;19.52;;;;;;;3.03;85.24;100696.88;5024952;28;20037;-71
2021/03/19 07:15:38;;;;;;;31.23;19.35;;;;;;;3.13;84.79;100699.75;5025116;28;20120;-70
2021/03/19 07:18:51;;;;;;;40.72;21.08;;;;;;;3.15;84.80;100698.69;5029272;28;20107;-70
2021/03/19 07:21:19;;;;;;;27.55;17.63;;;;;;;3.21;84.96;100710.53;5016529;28;20401;-71
2021/03/19 07:24:06;;;;;;;27.88;16.80;;;;;;;3.33;84.87;100706.25;5027823;28;20033;-71
2021/03/19 07:26:34;;;;;;;25.88;15.43;;;;;;;3.53;83.43;100711.03;5025549;28;20506;-70
2021/03/19 07:29:24;;;;;;;25.38;16.48;;;;;;;3.62;81.56;100725.25;5028616;28;20033;-70
2021/03/19 07:31:59;;;;;;;21.65;13.75;;;;;;;3.69;81.76;100710.81;5028414;28;20030;-70
2021/03/19 07:34:43;;;;;;;23.65;14.15;;;;;;;4.39;81.25;100722.66;5024228;28;20040;-70
2021/03/19 07:37:23;;;;;;;24.27;14.55;;;;;;;4.32;77.64;100722.25;5021424;28;20029;-70
2021/03/19 07:40:07;;;;;;;24.50;15.02;;;;;;;4.11;77.53;100727.19;5022835;28;20434;-70
2021/03/19 07:42:32;;;;;;;20.75;13.38;;;;;;;3.77;78.15;100733.88;5023551;28;20053;-70
2021/03/19 07:45:15;;;;;;;18.17;11.13;;;;;;;3.65;79.36;100739.88;5029630;28;20114;-70
2021/03/19 07:48:10;;;;;;;18.20;11.02;;;;;;;3.64;78.52;100736.44;5026112;28;20275;-70
2021/03/19 07:50:52;;;;;;;24.38;15.88;;;;;;;3.93;78.08;100734.50;5031683;28;20072;-70
2021/03/19 07:53:45;;;;;;;22.17;13.35;;;;;;;3.97;77.71;100737.75;5036782;28;20087;-70
2021/03/19 07:56:31;;;;;;;24.02;14.65;;;;;;;3.93;77.56;100742.38;5025521;28;20025;-70
2021/03/19 07:59:08;;;;;;;17.70;12.20;;;;;;;3.92;78.34;100745.06;5028287;28;20060;-70
2021/03/19 08:01:42;;;;;;;18.92;11.95;;;;;;;3.87;78.11;100744.53;5032726;28;20524;-70
2021/03/19 08:04:48;;;;;;;19.85;13.00;;;;;;;3.70;80.47;100748.28;5031340;28;20562;-70
2021/03/19 08:07:16;;;;;;;18.80;11.63;;;;;;;4.20;79.17;100760.56;5004875;28;20436;-70
2021/03/19 08:09:54;;;;;;;20.38;12.23;;;;;;;4.59;74.71;100755.28;5031254;28;20052;-70
2021/03/19 08:12:25;;;;;;;18.85;12.38;;;;;;;4.38;75.80;100757.63;5030217;28;20593;-70
2021/03/19 08:15:18;;;;;;;16.25;11.23;;;;;;;4.13;76.79;100764.56;5030839;28;20045;-70
2021/03/19 08:17:53;;;;;;;17.55;11.30;;;;;;;3.98;76.54;100765.56;5029133;28;20048;-69
2021/03/19 08:20:45;;;;;;;18.23;12.77;;;;;;;3.89;77.26;100776.69;5025656;28;20584;-69
2021/03/19 08:23:23;;;;;;;16.80;10.57;;;;;;;3.75;77.93;100778.44;5024864;28;20044;-69
2021/03/19 08:25:50;;;;;;;17.77;11.05;;;;;;;3.72;74.91;100783.00;5030558;28;20580;-69
2021/03/19 08:28:26;;;;;;;18.65;12.23;;;;;;;3.62;75.52;100780.16;5030320;28;20079;-69
2021/03/19 08:31:28;;;;;;;14.82;9.48;;;;;;;3.53;76.58;100783.41;5028268;28;20045;-69
2021/03/19 08:33:58;;;;;;;14.60;9.65;;;;;;;3.47;78.23;100789.84;5031245;28;20033;-69
2021/03/19 08:36:38;;;;;;;16.38;10.90;;;;;;;3.49;76.56;100792.38;5031546;28;20037;-69
2021/03/19 08:39:26;;;;;;;18.27;11.13;;;;;;;3.49;77.14;100802.84;5027958;28;20037;-68
2021/03/19 08:41:59;;;;;;;17.70;10.77;;;;;;;3.37;77.24;100801.84;5029671;28;20034;-69
2021/03/19 08:44:29;;;;;;;14.27;9.75;;;;;;;3.33;77.60;100801.19;5025414;28;20117;-70
2021/03/19 08:47:02;;;;;;;14.20;9.40;;;;;;;3.29;77.25;100809.31;5031386;28;20036;-70
2021/03/19 08:49:43;;;;;;;15.05;9.05;;;;;;;3.34;76.76;100802.88;5025223;28;20029;-69
2021/03/19 08:52:39;;;;;;;14.68;9.95;;;;;;;3.38;75.42;100806.13;5024095;28;20034;-69
2021/03/19 08:55:13;;;;;;;15.27;9.63;;;;;;;3.40;77.05;100807.69;5017429;28;20587;-69
2021/03/19 08:57:41;;;;;;;16.25;10.07;;;;;;;3.38;75.77;100804.38;5029467;28;20101;-69
2021/03/19 09:00:20;;;;;;;19.60;10.65;;;;;;;3.29;76.04;100822.38;5028392;28;20132;-70
2021/03/19 09:02:52;;;;;;;16.38;9.77;;;;;;;3.18;76.67;100820.47;5031102;28;20037;-69
2021/03/19 09:05:28;;;;;;;13.48;8.13;;;;;;;3.05;77.88;100823.03;5029917;28;20029;-69
2021/03/19 09:08:11;;;;;;;14.68;9.93;;;;;;;3.21;77.31;100833.34;5031058;28;20029;-69
2021/03/19 09:10:37;;;;;;;12.77;8.02;;;;;;;3.28;79.77;100833.78;5030866;28;20042;-69
2021/03/19 09:13:08;;;;;;;14.38;9.63;;;;;;;3.36;78.90;100840.22;5031825;28;20029;-69
2021/03/19 09:15:37;;;;;;;15.73;10.35;;;;;;;3.39;77.49;100850.47;5030953;28;20045;-69
2021/03/19 09:18:21;;;;;;;15.88;11.05;;;;;;;3.37;77.65;100851.50;5046188;28;20037;-68
2021/03/19 09:21:21;;;;;;;15.80;10.60;;;;;;;3.36;76.47;100858.53;5022083;28;20034;-69
2021/03/19 09:24:03;;;;;;;12.85;8.80;;;;;;;3.29;76.75;100859.84;5005085;28;20513;-69
2021/03/19 09:26:45;;;;;;;14.68;9.18;;;;;;;3.52;78.24;100855.75;5028530;28;20033;-69
2021/03/19 09:29:13;;;;;;;15.40;9.85;;;;;;;3.69;75.85;100852.03;5029210;28;20516;-70
2021/03/19 09:31:43;;;;;;;15.35;9.95;;;;;;;3.68;75.21;100847.75;5028825;28;20068;-70
2021/03/19 09:34:15;;;;;;;17.35;10.93;;;;;;;3.92;73.05;100860.19;5029901;28;20120;-68
2021/03/19 09:36:53;;;;;;;15.20;9.32;;;;;;;3.85;73.39;100862.34;5030087;28;20567;-68
2021/03/19 09:39:55;;;;;;;15.95;9.95;;;;;;;3.93;72.41;100864.47;5029846;28;20064;-68
2021/03/19 09:42:21;;;;;;;13.82;9.60;;;;;;;3.84;73.12;100858.06;5024865;28;20041;-69
2021/03/19 09:44:49;;;;;;;17.70;10.57;;;;;;;3.98;71.59;100865.84;5020271;28;20034;-70
2021/03/19 09:47:17;;;;;;;15.65;9.23;;;;;;;4.37;71.92;100882.47;5028196;28;20482;-70
2021/03/19 09:49:42;;;;;;;14.90;9.23;;;;;;;4.83;71.45;100879.31;5026242;28;20030;-70
2021/03/19 09:52:20;;;;;;;14.43;9.32;;;;;;;5.16;69.78;100877.91;5029565;28;20037;-70
2021/03/19 09:54:47;;;;;;;13.85;8.93;;;;;;;5.08;69.85;100885.50;5029654;28;20034;-68
2021/03/19 09:57:32;;;;;;;12.95;8.55;;;;;;;5.29;69.04;100881.34;5022936;28;20030;-68
2021/03/19 10:00:19;;;;;;;14.70;9.40;;;;;;;5.52;66.66;100881.47;5026989;28;20036;-68
2021/03/19 10:02:44;;;;;;;13.43;9.05;;;;;;;5.43;68.64;100887.38;5024170;28;20038;-69
2021/03/19 10:05:12;;;;;;;13.48;9.05;;;;;;;5.86;67.27;100884.28;5028609;28;20391;-68
2021/03/19 10:08:09;;;;;;;10.55;7.82;;;;;;;5.88;66.46;100896.34;5029417;28;20053;-68
2021/03/19 10:10:42;;;;;;;10.93;6.88;;;;;;;6.09;68.18;100896.56;5006498;28;20037;-69
2021/03/19 10:13:14;;;;;;;15.20;9.20;;;;;;;6.01;63.37;100898.13;5027112;28;20434;-68
2021/03/19 10:15:39;;;;;;;12.25;8.40;;;;;;;5.78;65.58;100905.00;5027767;28;20132;-68
2021/03/19 10:18:08;;;;;;;13.48;7.70;;;;;;;5.64;65.57;100892.88;5029575;28;20164;-70
2021/03/19 10:20:40;;;;;;;12.88;7.75;;;;;;;5.54;66.76;100900.56;5027472;28;20393;-68
2021/03/19 10:23:31;;;;;;;11.98;6.70;;;;;;;5.51;66.08;100885.91;5027918;28;20056;-68
2021/03/19 10:26:20;;;;;;;11.30;7.30;;;;;;;5.69;64.83;100881.09;5027279;28;20036;-67
2021/03/19 10:28:50;;;;;;;12.93;8.20;;;;;;;5.65;63.72;100878.78;5028632;28;20042;-68
2021/03/19 10:31:20;;;;;;;12.93;8.57;;;;;;;5.94;63.79;100887.22;5028177;28;20034;-69
2021/03/19 10:34:03;;;;;;;10.00;7.03;;;;;;;5.79;66.93;100888.28;5027659;28;20033;-69
2021/03/19 10:36:41;;;;;;;12.35;8.30;;;;;;;6.23;63.76;100895.56;5022549;28;20037;-69
2021/03/19 10:39:21;;;;;;;12.55;8.20;;;;;;;6.25;62.98;100891.03;5028731;28;20037;-68
2021/03/19 10:42:09;;;;;;;11.05;7.18;;;;;;;6.27;63.85;100891.75;5028653;28;20449;-68
2021/03/19 10:45:06;;;;;;;10.55;6.95;;;;;;;6.22;61.80;100888.66;5017979;28;20045;-67
2021/03/19 10:47:44;;;;;;;11.85;7.13;;;;;;;6.19;63.82;100893.28;5023170;28;20044;-68
2021/03/19 10:50:27;;;;;;;11.07;7.07;;;;;;;6.54;60.61;100907.22;5026173;28;20029;-69
2021/03/19 10:53:04;;;;;;;9.10;6.18;;;;;;;6.44;59.38;100902.78;5027273;28;20035;-68
2021/03/19 10:55:33;;;;;;;8.27;5.68;;;;;;;6.45;58.20;100907.91;5029161;28;20128;-68
2021/03/19 10:58:30;;;;;;;9.38;5.72;;;;;;;6.42;55.89;100909.94;5022239;28;20029;-67
2021/03/19 11:00:58;;;;;;;7.47;5.03;;;;;;;6.37;56.61;100902.41;4959099;28;20038;-67
2021/03/19 11:03:44;;;;;;;8.63;5.65;;;;;;;6.34;56.36;100908.72;5029432;28;20433;-69
2021/03/19 11:06:15;;;;;;;7.65;4.93;;;;;;;6.57;55.78;100922.75;5028574;28;20060;-70
2021/03/19 11:08:41;;;;;;;7.25;5.35;;;;;;;6.61;55.71;100917.28;5029581;28;20120;-68
2021/03/19 11:11:06;;;;;;;8.75;5.65;;;;;;;6.46;55.41;100912.22;5029270;28;20029;-68
2021/03/19 11:13:37;;;;;;;9.35;6.18;;;;;;;6.42;56.44;100913.41;5028961;28;20029;-69
2021/03/19 11:16:27;;;;;;;9.15;5.70;;;;;;;6.29;57.30;100918.75;5028672;28;20025;-69
2021/03/19 11:19:08;;;;;;;8.80;5.32;;;;;;;6.16;56.87;100921.41;5028904;28;20483;-69
2021/03/19 11:21:34;;;;;;;;;;;;;;;6.06;58.67;100927.47;5029931;28;20392;-69
2021/03/19 11:24:17;;;;;;;8.98;5.68;;;;;;;6.01;56.02;100924.38;5029079;28;20007;-68
2021/03/19 11:26:54;;;;;;;7.93;5.53;;;;;;;5.63;55.88;100926.16;5027100;28;20090;-67
2021/03/19 11:29:23;;;;;;;8.10;5.38;;;;;;;5.58;55.25;100928.28;5029530;28;20101;-68
2021/03/19 11:32:12;;;;;;;7.72;4.80;;;;;;;5.43;57.73;100926.72;5029333;28;20034;-67
2021/03/19 11:34:45;;;;;;;8.30;4.90;;;;;;;5.45;57.40;100938.78;5026982;28;20030;-67
2021/03/19 11:37:18;;;;;;;8.88;5.55;;;;;;;5.53;57.01;100933.00;5029558;28;20034;-68
2021/03/19 11:39:49;;;;;;;8.40;4.90;;;;;;;5.73;55.95;100936.81;5029998;28;20043;-68
2021/03/19 11:42:17;;;;;;;8.13;5.10;;;;;;;5.78;56.78;100928.63;5028991;28;20045;-68
2021/03/19 11:44:44;;;;;;;9.18;6.00;;;;;;;5.95;56.53;100936.97;5029947;28;20116;-67
2021/03/19 11:47:27;;;;;;;8.57;5.32;;;;;;;6.04;56.03;100945.13;5029367;28;20022;-68
2021/03/19 11:50:06;;;;;;;8.60;5.13;;;;;;;5.97;53.81;100931.59;5026531;28;20172;-68
2021/03/19 11:52:31;;;;;;;7.10;4.53;;;;;;;5.87;52.23;100948.94;5029333;28;20075;-67
2021/03/19 11:54:56;;;;;;;8.45;5.20;;;;;;;5.61;52.47;100959.53;5029352;28;20124;-68